Time;durP1;ratioP1;P1;durP2;ratioP2;P2;SDS_P1;SDS_P2;PMS_P1;PMS_P2;Temp;Humidity;BMP_temperature;BMP_pressure;BME280_temperature;BME280_humidity;BME280_pressure;Samples;Min_cycle;Max_cycle;Signal;HPM_P1;HPM_P2
2022/11/14 00:02:15;;;;;;;104.30;79.93;;;21.20;51.50;;;;;;4836949;55;21559;-33
2022/11/14 00:07:16;;;;;;;107.30;79.87;;;21.20;51.50;;;;;;4887600;55;21591;-43
2022/11/14 00:12:17;;;;;;;106.63;79.75;;;21.20;51.40;;;;;;5231056;55;20994;-42
2022/11/14 00:17:18;;;;;;;103.45;80.07;;;21.20;51.50;;;;;;4744751;55;21069;-41
2022/11/14 00:22:19;;;;;;;103.28;79.07;;;21.20;51.40;;;;;;4745190;59;21540;-40
2022/11/14 00:27:20;;;;;;;104.30;78.62;;;21.20;51.50;;;;;;4965683;55;21080;-48
2022/11/14 00:32:21;;;;;;;104.45;79.22;;;21.20;51.40;;;;;;5052768;55;21016;-36
2022/11/14 00:37:22;;;;;;;104.40;78.47;;;21.20;51.40;;;;;;4773724;55;21635;-31
2022/11/14 00:42:23;;;;;;;104.12;77.47;;;21.20;51.50;;;;;;4913103;55;21050;-47
2022/11/14 00:47:23;;;;;;;104.70;76.75;;;21.20;51.40;;;;;;5058318;55;21114;-37
2022/11/14 00:52:24;;;;;;;109.28;83.62;;;21.20;51.40;;;;;;5013507;55;20986;-34
2022/11/14 00:57:25;;;;;;;102.70;78.30;;;21.20;51.30;;;;;;4881495;55;21013;-41
2022/11/14 01:02:26;;;;;;;102.10;78.15;;;21.20;51.40;;;;;;4962013;55;21603;-42
2022/11/14 01:07:27;;;;;;;101.85;77.95;;;21.20;51.40;;;;;;5231235;55;21158;-30
2022/11/14 01:12:27;;;;;;;106.85;78.50;;;21.20;51.40;;;;;;4830050;55;21046;-43
2022/11/14 01:17:28;;;;;;;107.40;81.10;;;21.20;51.40;;;;;;4744757;59;21106;-44
2022/11/14 01:22:30;;;;;;;103.93;77.75;;;21.20;51.30;;;;;;4972962;55;21138;-37
2022/11/14 01:27:31;;;;;;;109.25;80.70;;;21.20;51.30;;;;;;4755026;55;21009;-38
2022/11/14 01:32:32;;;;;;;108.47;81.18;;;21.20;51.30;;;;;;4968775;55;21045;-45
2022/11/14 01:37:32;;;;;;;106.22;79.43;;;21.20;51.30;;;;;;4844215;55;21077;-43
2022/11/14 01:42:33;;;;;;;102.93;78.60;;;21.20;51.30;;;;;;5095519;55;21490;-37
2022/11/14 01:47:35;;;;;;;102.18;77.65;;;21.20;51.40;;;;;;4787067;55;21083;-36
2022/11/14 01:52:39;;;;;;;106.05;79.97;;;21.20;51.30;;;;;;4959266;55;21082;-45
2022/11/14 01:57:45;;;;;;;106.20;79.55;;;21.20;51.30;;;;;;4783607;55;21093;-35
2022/11/14 02:02:47;;;;;;;103.57;78.83;;;21.20;51.30;;;;;;5231439;55;20970;-42
2022/11/14 02:07:48;;;;;;;105.68;80.87;;;21.20;51.30;;;;;;4845140;55;21050;-47
2022/11/14 02:12:50;;;;;;;108.00;81.00;;;21.20;51.30;;;;;;4973468;55;20993;-40
2022/11/14 02:17:51;;;;;;;107.22;80.03;;;21.20;51.30;;;;;;4750221;55;21583;-48
2022/11/14 02:22:52;;;;;;;104.12;79.55;;;21.20;51.30;;;;;;4761169;55;21009;-48
2022/11/14 02:27:53;;;;;;;105.72;78.40;;;21.20;51.30;;;;;;4745448;59;21014;-36
2022/11/14 02:32:53;;;;;;;103.20;77.97;;;21.20;51.30;;;;;;5062539;55;21547;-43
2022/11/14 02:37:54;;;;;;;102.78;77.35;;;21.20;51.20;;;;;;4744866;59;21039;-42
2022/11/14 02:42:55;;;;;;;102.57;76.43;;;21.20;51.30;;;;;;5230748;55;21565;-40
2022/11/14 02:47:56;;;;;;;106.25;79.43;;;21.20;51.80;;;;;;4874817;55;21049;-45
2022/11/14 02:52:56;;;;;;;102.28;77.18;;;21.20;51.30;;;;;;4796732;55;21058;-34
2022/11/14 02:57:57;;;;;;;104.65;77.12;;;21.20;51.30;;;;;;4906144;55;21013;-45
2022/11/14 03:02:58;;;;;;;98.97;76.53;;;21.20;51.20;;;;;;4745669;59;21033;-42
2022/11/14 03:07:59;;;;;;;100.45;76.25;;;21.10;51.20;;;;;;4813007;55;21081;-40
2022/11/14 03:13:00;;;;;;;104.22;80.30;;;21.10;51.10;;;;;;4808177;55;21555;-46
2022/11/14 03:18:00;;;;;;;99.65;75.55;;;21.10;51.10;;;;;;5230690;55;21572;-45
2022/11/14 03:23:02;;;;;;;102.82;77.82;;;21.20;51.20;;;;;;4745550;59;21128;-40
2022/11/14 03:28:02;;;;;;;104.20;77.45;;;21.10;51.10;;;;;;4745866;59;21065;-36
2022/11/14 03:33:03;;;;;;;100.15;76.37;;;21.20;51.20;;;;;;4745427;59;21113;-36
2022/11/14 03:38:04;;;;;;;103.95;78.15;;;21.10;50.60;;;;;;4999193;55;21018;-38
2022/11/14 03:43:05;;;;;;;99.78;76.32;;;21.10;51.10;;;;;;5231167;55;21053;-40
2022/11/14 03:48:06;;;;;;;101.10;77.57;;;21.20;51.20;;;;;;4745632;59;21014;-43
2022/11/14 03:53:07;;;;;;;100.62;75.60;;;21.10;51.10;;;;;;4745219;59;21628;-30
2022/11/14 03:58:08;;;;;;;96.53;76.10;;;21.20;51.10;;;;;;4744424;59;21002;-42
2022/11/14 04:03:09;;;;;;;100.55;77.05;;;21.10;51.10;;;;;;4782429;55;20990;-41
2022/11/14 04:08:10;;;;;;;98.28;74.22;;;21.20;51.80;;;;;;4955011;55;21050;-29
2022/11/14 04:13:10;;;;;;;97.97;74.50;;;21.20;51.20;;;;;;4832071;55;21069;-42
2022/11/14 04:18:11;;;;;;;99.20;74.60;;;21.10;51.20;;;;;;4745617;59;21042;-34
2022/11/14 04:23:12;;;;;;;99.05;74.00;;;21.20;51.20;;;;;;4849640;55;21005;-38
2022/11/14 04:28:13;;;;;;;93.72;73.10;;;21.20;51.20;;;;;;4745609;59;20978;-37
2022/11/14 04:33:14;;;;;;;97.65;74.85;;;21.10;51.20;;;;;;4835424;55;21508;-41
2022/11/14 04:38:15;;;;;;;96.53;73.72;;;21.10;51.30;;;;;;4762185;55;21006;-40
2022/11/14 04:43:16;;;;;;;94.85;72.95;;;21.10;51.30;;;;;;4832784;55;21062;-42
2022/11/14 04:48:17;;;;;;;97.97;74.65;;;21.20;51.50;;;;;;4745534;59;21001;-39
2022/11/14 04:53:17;;;;;;;93.43;72.55;;;21.10;51.50;;;;;;4832761;55;21047;-44
2022/11/14 04:58:18;;;;;;;97.20;74.12;;;21.10;51.50;;;;;;4859565;55;21532;-45
2022/11/14 05:03:19;;;;;;;94.20;72.93;;;21.10;51.60;;;;;;4745063;59;21111;-44
2022/11/14 05:08:20;;;;;;;95.28;73.00;;;21.10;51.60;;;;;;4803238;55;21105;-43
2022/11/14 05:13:20;;;;;;;94.05;71.53;;;21.10;51.60;;;;;;5083976;55;21005;-44
2022/11/14 05:18:21;;;;;;;96.03;71.70;;;21.20;51.70;;;;;;4858088;55;21009;-41
2022/11/14 05:23:23;;;;;;;94.37;71.72;;;21.10;51.70;;;;;;4782300;55;21009;-36
2022/11/14 05:28:23;;;;;;;90.80;70.40;;;21.10;51.60;;;;;;4778704;55;21499;-45
2022/11/14 05:33:24;;;;;;;88.65;68.65;;;21.10;51.70;;;;;;4745489;59;21009;-40
2022/11/14 05:38:25;;;;;;;95.97;71.65;;;21.10;51.70;;;;;;4766550;55;21006;-38
2022/11/14 05:43:28;;;;;;;91.97;69.57;;;21.10;51.60;;;;;;4815028;55;21054;-40
2022/11/14 05:48:30;;;;;;;92.03;69.60;;;21.20;51.70;;;;;;4890825;55;21085;-43
2022/11/14 05:53:32;;;;;;;94.18;70.78;;;21.10;51.60;;;;;;4759350;55;21559;-49
2022/11/14 05:58:34;;;;;;;96.25;72.82;;;21.10;51.60;;;;;;4745231;55;21002;-40
2022/11/14 06:03:37;;;;;;;87.35;66.97;;;21.20;51.70;;;;;;4750670;55;21010;-35
2022/11/14 06:08:39;;;;;;;95.55;71.28;;;21.10;51.60;;;;;;4920711;55;21030;-44
2022/11/14 06:13:40;;;;;;;86.55;68.72;;;21.10;51.60;;;;;;4915428;55;21073;-43
2022/11/14 06:18:41;;;;;;;90.68;69.70;;;21.10;51.60;;;;;;4856830;55;21010;-46
2022/11/14 06:23:42;;;;;;;92.18;70.50;;;21.20;51.70;;;;;;4908706;55;21018;-36
2022/11/14 06:28:43;;;;;;;87.90;67.82;;;21.10;51.60;;;;;;4745184;59;21010;-44
2022/11/14 06:33:44;;;;;;;92.30;70.43;;;21.10;51.60;;;;;;4744859;59;21069;-41
2022/11/14 06:38:45;;;;;;;98.28;72.07;;;21.10;51.70;;;;;;4745120;59;21499;-45
2022/11/14 06:43:48;;;;;;;96.45;71.00;;;21.10;52.20;;;;;;4807580;55;21010;-50
2022/11/14 06:48:51;;;;;;;97.15;72.25;;;21.20;51.60;;;;;;4971052;55;21066;-46
2022/11/14 06:53:52;;;;;;;94.62;71.87;;;21.10;51.60;;;;;;5059150;55;21487;-46
2022/11/14 06:58:53;;;;;;;97.72;73.50;;;21.20;51.70;;;;;;4831380;55;21053;-41
2022/11/14 07:03:55;;;;;;;95.97;73.28;;;21.10;51.60;;;;;;4789453;55;21014;-38
2022/11/14 07:08:56;;;;;;;96.30;72.00;;;21.10;51.50;;;;;;4751515;55;21598;-43
2022/11/14 07:14:01;;;;;;;97.18;74.12;;;21.10;51.50;;;;;;4762506;55;21014;-46
2022/11/14 07:19:04;;;;;;;94.50;73.22;;;21.10;51.50;;;;;;4745401;59;21060;-41
2022/11/14 07:24:06;;;;;;;99.78;75.72;;;21.10;51.50;;;;;;4744220;59;21070;-33
2022/11/14 07:29:07;;;;;;;99.35;76.12;;;21.10;51.50;;;;;;4793682;55;20998;-43
2022/11/14 07:34:08;;;;;;;98.62;75.78;;;21.10;51.40;;;;;;4795098;55;21152;-50
2022/11/14 07:39:09;;;;;;;100.35;76.12;;;21.10;51.50;;;;;;4745170;59;21081;-41
2022/11/14 07:44:09;;;;;;;104.68;78.12;;;21.10;51.40;;;;;;4839938;55;21057;-43
2022/11/14 07:49:10;;;;;;;104.35;79.20;;;21.20;51.50;;;;;;4881031;55;21041;-41
2022/11/14 07:54:12;;;;;;;105.70;79.55;;;21.10;51.40;;;;;;4744482;59;21491;-35
2022/11/14 07:59:12;;;;;;;113.50;84.05;;;21.20;51.50;;;;;;4745495;59;21527;-47
2022/11/14 08:04:13;;;;;;;120.40;87.53;;;21.20;51.40;;;;;;4819771;55;21054;-27
2022/11/14 08:09:14;;;;;;;117.62;87.32;;;21.20;51.40;;;;;;4866501;55;21037;-36
2022/11/14 08:14:15;;;;;;;125.03;91.22;;;21.30;51.40;;;;;;4778455;55;21014;-37
2022/11/14 08:19:16;;;;;;;129.15;92.72;;;21.30;51.30;;;;;;4819141;55;21010;-41
2022/11/14 08:24:17;;;;;;;132.02;92.22;;;21.30;51.40;;;;;;4744314;56;21077;-48
2022/11/14 08:29:18;;;;;;;132.48;92.03;;;21.40;51.90;;;;;;4745285;55;21067;-44
2022/11/14 08:34:19;;;;;;;145.45;98.07;;;21.40;52.00;;;;;;4744836;59;21025;-30
2022/11/14 08:39:20;;;;;;;140.25;100.05;;;21.40;51.90;;;;;;4840935;55;21480;-27
2022/11/14 08:44:21;;;;;;;144.45;101.32;;;21.50;52.10;;;;;;4848820;55;21042;-26
2022/11/14 08:49:22;;;;;;;146.73;103.30;;;21.50;52.00;;;;;;4817609;55;21022;-39
2022/11/14 08:54:23;;;;;;;152.73;106.35;;;21.50;52.00;;;;;;4743682;59;21040;-47
2022/11/14 08:59:23;;;;;;;159.02;108.65;;;21.60;52.00;;;;;;4744903;59;21025;-45
2022/11/14 09:04:24;;;;;;;158.77;110.95;;;21.60;51.90;;;;;;4745133;59;21086;-45
2022/11/14 09:09:25;;;;;;;169.40;118.55;;;21.60;52.00;;;;;;4745490;55;21090;-39
2022/11/14 09:14:26;;;;;;;165.80;115.20;;;21.60;51.90;;;;;;4782933;55;21080;-39
2022/11/14 09:19:27;;;;;;;173.20;121.03;;;21.60;51.90;;;;;;4827877;55;21503;-36
2022/11/14 09:24:28;;;;;;;175.55;122.43;;;21.70;51.90;;;;;;4744662;59;21081;-43
2022/11/14 09:29:29;;;;;;;189.85;127.82;;;21.70;52.20;;;;;;4741605;59;21013;-41
2022/11/14 09:34:29;;;;;;;192.68;128.30;;;21.70;52.00;;;;;;4741239;59;21096;-45
2022/11/14 09:39:30;;;;;;;187.95;129.12;;;21.70;51.80;;;;;;4745117;59;21554;-45
2022/11/14 09:45:17;;;;;;;197.07;135.55;;;21.70;51.50;;;;;;4759065;55;21495;-40
2022/11/14 09:50:26;;;;;;;196.57;134.68;;;21.70;51.40;;;;;;4742530;55;21101;-47
2022/11/14 09:55:32;;;;;;;205.87;141.68;;;21.60;51.30;;;;;;4741860;55;21085;-44
2022/11/14 10:01:16;;;;;;;206.32;140.73;;;21.60;51.10;;;;;;4745126;59;21054;-46
2022/11/14 10:06:46;;;;;;;206.43;143.20;;;21.60;51.30;;;;;;4927174;55;21070;-27
2022/11/14 10:15:08;;;;;;;216.40;146.60;;;21.70;51.60;;;;;;4975446;55;21037;-43
2022/11/14 10:20:25;;;;;;;218.40;152.45;;;21.70;51.70;;;;;;4745033;59;21100;-39
2022/11/14 10:27:09;;;;;;;232.37;157.77;;;21.70;51.80;;;;;;4755573;55;21025;-44
2022/11/14 10:33:57;;;;;;;245.37;165.02;;;21.70;51.80;;;;;;4806118;55;21010;-44
2022/11/14 10:39:53;;;;;;;243.48;165.95;;;21.70;51.90;;;;;;4876864;55;21463;-31
2022/11/14 10:45:16;;;;;;;257.67;172.27;;;21.70;52.00;;;;;;4757460;55;21567;-36
2022/11/14 10:50:44;;;;;;;250.65;167.48;;;21.80;52.10;;;;;;4745436;59;21061;-32
2022/11/14 10:55:50;;;;;;;246.75;167.70;;;21.80;52.20;;;;;;4848510;55;21014;-42
2022/11/14 11:00:51;;;;;;;249.65;169.45;;;21.80;52.20;;;;;;4881798;55;21550;-46
2022/11/14 11:05:56;;;;;;;265.00;179.15;;;21.80;52.40;;;;;;4790691;55;21085;-36
2022/11/14 11:16:21;;;;;;;258.40;175.15;;;21.80;52.30;;;;;;4744489;59;21531;-37
2022/11/14 11:21:22;;;;;;;263.55;177.48;;;21.80;52.50;;;;;;4781524;55;21061;-38
2022/11/14 11:26:29;;;;;;;255.45;180.32;;;21.80;52.40;;;;;;4769100;55;21483;-39
2022/11/14 11:31:53;;;;;;;261.17;173.53;;;21.80;52.40;;;;;;4766782;55;21062;-42
2022/11/14 11:37:42;;;;;;;255.55;170.68;;;21.80;52.50;;;;;;4744525;59;21014;-39
2022/11/14 11:42:56;;;;;;;257.95;173.45;;;21.90;52.60;;;;;;4795591;55;21066;-37
2022/11/14 11:48:18;;;;;;;251.65;170.50;;;21.80;52.60;;;;;;4879126;55;21049;-30
2022/11/14 11:54:23;;;;;;;253.23;168.73;;;21.90;52.80;;;;;;4745185;59;21026;-38
2022/11/14 12:00:37;;;;;;;246.40;168.48;;;21.90;52.80;;;;;;4745244;59;21528;-34
2022/11/14 12:09:28;;;;;;;245.27;161.12;;;21.90;53.00;;;;;;4860807;55;20974;-41
2022/11/14 12:15:07;;;;;;;241.27;158.48;;;21.90;53.90;;;;;;4761233;55;21033;-43
2022/11/14 12:20:39;;;;;;;241.80;164.52;;;21.80;53.30;;;;;;4795903;55;20998;-44
2022/11/14 12:26:04;;;;;;;240.48;164.48;;;21.80;53.20;;;;;;4963524;55;21006;-38
2022/11/14 12:31:12;;;;;;;249.93;165.65;;;21.80;53.20;;;;;;4745308;55;21059;-45
2022/11/14 12:36:12;;;;;;;244.35;167.62;;;21.80;53.10;;;;;;4744338;59;21102;-39
2022/11/14 12:41:24;;;;;;;243.50;164.62;;;21.80;53.00;;;;;;4834026;55;21018;-38
2022/11/14 12:46:24;;;;;;;243.52;167.82;;;21.80;53.40;;;;;;4886438;55;20998;-39
2022/11/14 12:52:29;;;;;;;254.40;168.90;;;21.80;53.60;;;;;;4832456;55;21471;-46
2022/11/14 12:58:06;;;;;;;252.60;164.48;;;21.90;54.00;;;;;;4743592;59;21112;-35
2022/11/14 13:04:56;;;;;;;244.57;167.57;;;21.90;54.00;;;;;;4842483;55;20993;-37
2022/11/14 13:10:44;;;;;;;244.68;164.23;;;21.90;54.50;;;;;;4767189;55;21583;-30
2022/11/14 13:21:45;;;;;;;247.88;167.23;;;21.90;54.10;;;;;;4743446;59;21523;-31
2022/11/14 13:26:53;;;;;;;232.70;158.37;;;22.00;54.30;;;;;;4750554;55;21555;-29
2022/11/14 13:31:54;;;;;;;237.52;160.98;;;22.00;54.40;;;;;;4996552;55;21053;-27
2022/11/14 13:38:40;;;;;;;237.23;157.80;;;22.00;54.60;;;;;;4779143;55;21550;-26
2022/11/14 13:44:25;;;;;;;;;;;22.00;54.50;;;;;;4747555;59;21073;-33
2022/11/14 13:49:55;;;;;;;287.02;178.52;;;21.90;52.90;;;;;;4748624;55;20159;-46
2022/11/14 13:54:57;;;;;;;302.70;179.98;;;21.80;52.20;;;;;;4743336;59;21010;-40
2022/11/14 14:00:12;;;;;;;283.98;178.87;;;21.80;52.40;;;;;;4955965;55;21081;-41
2022/11/14 14:07:10;;;;;;;269.67;167.50;;;21.80;52.60;;;;;;4784511;55;21033;-43
2022/11/14 14:12:42;;;;;;;266.27;166.85;;;21.70;52.70;;;;;;4745080;55;21436;-45
2022/11/14 14:18:05;;;;;;;278.30;176.52;;;21.70;52.80;;;;;;4782906;55;21061;-51
2022/11/14 14:23:43;;;;;;;272.88;166.90;;;21.70;52.90;;;;;;4806358;55;21587;-46
2022/11/14 14:30:13;;;;;;;273.25;168.73;;;21.70;53.00;;;;;;4795023;55;21029;-44
2022/11/14 14:35:31;;;;;;;261.27;162.20;;;21.60;53.00;;;;;;4790893;55;21110;-47
2022/11/14 14:40:36;;;;;;;257.85;163.35;;;21.60;53.10;;;;;;4892334;55;21540;-48
2022/11/14 14:45:47;;;;;;;258.52;160.48;;;21.60;53.10;;;;;;4829757;55;21122;-46
2022/11/14 14:50:53;;;;;;;253.85;159.07;;;21.60;53.10;;;;;;4845213;55;20986;-42
2022/11/14 14:56:03;;;;;;;251.98;163.65;;;21.60;53.20;;;;;;4744303;59;21053;-45
2022/11/14 15:02:16;;;;;;;261.23;160.65;;;21.60;53.20;;;;;;4786127;55;21014;-47
2022/11/14 15:07:21;;;;;;;260.55;159.40;;;21.60;53.30;;;;;;4912650;55;21006;-43
2022/11/14 15:12:27;;;;;;;253.45;158.25;;;21.60;53.90;;;;;;4971181;55;21038;-46
2022/11/14 15:17:29;;;;;;;251.73;155.95;;;21.60;53.40;;;;;;4761827;55;21011;-45
2022/11/14 15:22:29;;;;;;;251.23;156.73;;;21.60;53.40;;;;;;4823247;55;21014;-45
2022/11/14 15:27:32;;;;;;;252.07;157.68;;;21.60;53.50;;;;;;4744761;59;21010;-42
2022/11/14 15:32:33;;;;;;;249.90;157.57;;;21.60;53.50;;;;;;4745136;59;21468;-47
2022/11/14 15:37:33;;;;;;;242.07;155.37;;;21.60;53.50;;;;;;4744419;59;21010;-42
2022/11/14 15:42:34;;;;;;;244.35;151.80;;;21.60;53.60;;;;;;4802104;55;21483;-47
2022/11/14 15:47:39;;;;;;;244.07;153.95;;;21.60;53.60;;;;;;4744871;59;21010;-43
2022/11/14 15:52:56;;;;;;;238.23;150.35;;;21.60;53.60;;;;;;4744999;55;21490;-46
2022/11/14 15:57:57;;;;;;;;;;;21.50;53.60;;;;;;4747620;59;21002;-44
2022/11/14 16:02:58;;;;;;;239.02;151.48;;;21.50;53.60;;;;;;4766475;55;20073;-43
2022/11/14 16:07:59;;;;;;;231.45;149.07;;;21.50;53.60;;;;;;4740599;59;21431;-41
2022/11/14 16:12:59;;;;;;;231.60;146.30;;;21.50;53.70;;;;;;4748171;55;21009;-45
2022/11/14 16:18:00;;;;;;;227.85;148.73;;;21.50;53.70;;;;;;4744333;59;21113;-45
2022/11/14 16:23:01;;;;;;;234.95;149.70;;;21.50;53.70;;;;;;4744906;59;21005;-48
2022/11/14 16:28:02;;;;;;;231.05;147.52;;;21.50;53.70;;;;;;4745331;59;21473;-50
2022/11/14 16:33:03;;;;;;;232.23;149.30;;;21.50;53.80;;;;;;4745185;59;21018;-45
2022/11/14 16:38:04;;;;;;;231.02;150.20;;;21.50;53.80;;;;;;4965793;55;21531;-39
2022/11/14 16:43:05;;;;;;;229.55;148.38;;;21.50;53.80;;;;;;4816949;55;21069;-47
2022/11/14 16:48:05;;;;;;;230.25;148.98;;;21.50;53.90;;;;;;4940515;55;20997;-46
2022/11/14 16:53:06;;;;;;;228.93;146.68;;;21.50;53.80;;;;;;4944160;55;21487;-49
2022/11/14 16:58:07;;;;;;;225.50;147.60;;;21.50;53.80;;;;;;4795751;55;21005;-41
2022/11/14 17:03:08;;;;;;;220.77;144.70;;;21.50;53.90;;;;;;4951913;55;20998;-46
2022/11/14 17:08:09;;;;;;;228.00;146.87;;;21.50;53.90;;;;;;4772094;55;21113;-39
2022/11/14 17:13:11;;;;;;;231.02;147.20;;;21.50;53.80;;;;;;4744930;55;21121;-43
2022/11/14 17:18:11;;;;;;;224.07;144.87;;;21.50;53.80;;;;;;4764948;55;20994;-42
2022/11/14 17:23:13;;;;;;;222.73;145.55;;;21.50;53.90;;;;;;4744990;56;21030;-48
2022/11/14 17:28:13;;;;;;;218.82;141.18;;;21.50;53.90;;;;;;4745008;59;21468;-43
2022/11/14 17:33:14;;;;;;;225.23;146.85;;;21.50;53.90;;;;;;4815532;55;21010;-44
2022/11/14 17:38:15;;;;;;;226.20;146.52;;;21.50;53.90;;;;;;4752483;55;21069;-44
2022/11/14 17:43:16;;;;;;;226.73;147.10;;;21.50;53.90;;;;;;4782129;55;21078;-41
2022/11/14 17:48:17;;;;;;;224.77;144.75;;;21.50;53.90;;;;;;4744954;59;21546;-44
2022/11/14 17:53:18;;;;;;;216.23;142.02;;;21.50;54.00;;;;;;4744699;55;21013;-41
2022/11/14 17:58:19;;;;;;;223.87;144.90;;;21.50;54.00;;;;;;4743990;55;21137;-45
2022/11/14 18:03:20;;;;;;;227.10;147.00;;;21.50;54.00;;;;;;4937919;55;21085;-42
2022/11/14 18:08:21;;;;;;;231.60;148.15;;;21.50;54.00;;;;;;4777215;55;21030;-44
2022/11/14 18:13:22;;;;;;;229.85;148.02;;;21.50;54.00;;;;;;4744873;59;20998;-44
2022/11/14 18:18:22;;;;;;;220.15;143.62;;;21.50;54.00;;;;;;4815685;55;21018;-48
2022/11/14 18:23:24;;;;;;;223.52;146.23;;;21.50;54.00;;;;;;4813811;55;21006;-47
2022/11/14 18:28:25;;;;;;;218.05;144.02;;;21.40;54.00;;;;;;4938936;55;21531;-49
2022/11/14 18:33:25;;;;;;;216.45;144.87;;;21.40;54.10;;;;;;4744806;59;21022;-45
2022/11/14 18:38:30;;;;;;;230.07;147.80;;;21.40;54.00;;;;;;4761048;55;21562;-49
2022/11/14 18:43:32;;;;;;;220.45;146.50;;;21.40;54.00;;;;;;4750343;55;21555;-47
2022/11/14 18:48:34;;;;;;;211.18;142.52;;;21.40;54.00;;;;;;4791404;55;21523;-47
2022/11/14 18:53:36;;;;;;;220.07;142.18;;;21.40;54.00;;;;;;4767743;55;20998;-45
2022/11/14 18:58:38;;;;;;;203.85;137.68;;;21.40;54.00;;;;;;4824172;55;21074;-44
2022/11/14 19:03:39;;;;;;;211.52;139.85;;;21.40;54.10;;;;;;4863493;55;21563;-50
2022/11/14 19:08:40;;;;;;;209.95;141.12;;;21.40;54.10;;;;;;4825608;55;21119;-44
2022/11/14 19:13:41;;;;;;;208.02;138.70;;;21.40;54.00;;;;;;4968712;55;20998;-41
2022/11/14 19:18:42;;;;;;;211.00;140.50;;;21.40;54.00;;;;;;4810592;55;21006;-51
2022/11/14 19:23:43;;;;;;;210.30;139.30;;;21.40;54.00;;;;;;4745198;59;21018;-45
2022/11/14 19:28:44;;;;;;;207.40;138.93;;;21.40;54.00;;;;;;4861612;55;20982;-42
2022/11/14 19:33:45;;;;;;;205.62;138.90;;;21.40;54.00;;;;;;4845861;55;21053;-52
2022/11/14 19:38:46;;;;;;;196.02;135.30;;;21.40;54.00;;;;;;4783742;55;21061;-44
2022/11/14 19:43:47;;;;;;;204.38;141.55;;;21.40;54.00;;;;;;4910622;55;21078;-43
2022/11/14 19:48:48;;;;;;;201.40;138.68;;;21.40;54.00;;;;;;4778694;55;20998;-40
2022/11/14 19:53:51;;;;;;;195.60;137.30;;;21.40;54.00;;;;;;4916559;55;21547;-45
2022/11/14 19:58:55;;;;;;;203.07;138.12;;;21.40;54.60;;;;;;4745302;59;21550;-46
2022/11/14 20:04:00;;;;;;;201.43;136.70;;;21.40;54.00;;;;;;4896869;55;21597;-39
2022/11/14 20:09:09;;;;;;;193.68;136.48;;;21.40;54.00;;;;;;4852326;55;21058;-36
2022/11/14 20:14:11;;;;;;;187.40;132.45;;;21.40;54.00;;;;;;5015696;55;21026;-44
2022/11/14 20:19:12;;;;;;;186.15;130.80;;;21.40;53.90;;;;;;4745305;59;21580;-41
2022/11/14 20:24:20;;;;;;;186.25;132.23;;;21.40;54.00;;;;;;4745167;59;21602;-42
2022/11/14 20:29:21;;;;;;;189.07;132.98;;;21.40;54.00;;;;;;4860403;55;21552;-40
2022/11/14 20:34:22;;;;;;;190.27;130.30;;;21.40;53.90;;;;;;4768988;55;21021;-31
2022/11/14 20:39:22;;;;;;;178.90;128.45;;;21.40;54.00;;;;;;4810391;55;20986;-38
2022/11/14 20:44:23;;;;;;;179.48;128.35;;;21.40;54.00;;;;;;4803514;55;20989;-36
2022/11/14 20:49:24;;;;;;;175.77;126.00;;;21.40;54.30;;;;;;4761147;55;21022;-44
2022/11/14 20:54:25;;;;;;;180.35;126.97;;;21.40;53.90;;;;;;4800268;55;21057;-44
2022/11/14 20:59:26;;;;;;;180.50;128.23;;;21.40;53.80;;;;;;4755228;55;21517;-42
2022/11/14 21:04:27;;;;;;;180.10;128.18;;;21.40;53.90;;;;;;4808545;55;21057;-44
2022/11/14 21:09:28;;;;;;;171.93;124.00;;;21.40;53.80;;;;;;4778675;55;21077;-44
2022/11/14 21:14:29;;;;;;;177.18;125.28;;;21.40;53.80;;;;;;4908023;55;21467;-34
2022/11/14 21:19:30;;;;;;;177.10;124.85;;;21.30;54.10;;;;;;5139972;55;21464;-43
2022/11/14 21:24:30;;;;;;;172.30;122.85;;;21.30;53.70;;;;;;4784651;55;21464;-29
2022/11/14 21:29:31;;;;;;;166.80;120.30;;;21.30;53.70;;;;;;4762029;55;20986;-35
2022/11/14 21:34:33;;;;;;;164.13;116.95;;;21.30;54.30;;;;;;4852631;55;21003;-44
2022/11/14 21:39:33;;;;;;;160.50;117.18;;;21.30;53.70;;;;;;4906542;55;21492;-47
2022/11/14 21:44:34;;;;;;;158.52;117.47;;;21.30;53.60;;;;;;4849864;55;21010;-41
2022/11/14 21:49:35;;;;;;;167.90;117.80;;;21.40;53.60;;;;;;4922255;55;21503;-41
2022/11/14 21:54:36;;;;;;;164.25;117.53;;;21.30;53.60;;;;;;4776683;55;21476;-37
2022/11/14 21:59:37;;;;;;;156.85;114.22;;;21.30;53.60;;;;;;4745498;59;21057;-48
2022/11/14 22:04:39;;;;;;;156.95;114.30;;;21.30;53.60;;;;;;4909122;55;21066;-48
2022/11/14 22:09:40;;;;;;;152.77;111.45;;;21.30;53.50;;;;;;4885694;55;21508;-48
2022/11/14 22:14:41;;;;;;;151.32;111.30;;;21.30;53.60;;;;;;4774256;55;21010;-44
2022/11/14 22:19:42;;;;;;;153.18;113.53;;;21.30;53.50;;;;;;4968219;55;21017;-46
2022/11/14 22:24:42;;;;;;;152.35;110.35;;;21.30;53.50;;;;;;4771590;55;21488;-39
2022/11/14 22:29:43;;;;;;;151.23;109.07;;;21.30;53.50;;;;;;4924105;55;21014;-48
2022/11/14 22:34:44;;;;;;;144.25;106.03;;;21.30;53.50;;;;;;4995879;55;21078;-41
2022/11/14 22:39:45;;;;;;;144.30;106.32;;;21.30;53.50;;;;;;4995312;55;21010;-44
2022/11/14 22:44:45;;;;;;;139.52;104.10;;;21.30;53.60;;;;;;4745261;59;21018;-37
2022/11/14 22:49:46;;;;;;;143.02;106.80;;;21.30;53.40;;;;;;4863383;55;21599;-37
2022/11/14 22:54:47;;;;;;;142.37;105.60;;;21.30;53.40;;;;;;5153248;55;21117;-44
2022/11/14 22:59:48;;;;;;;134.18;101.55;;;21.30;53.50;;;;;;4745611;59;20993;-37
2022/11/14 23:04:49;;;;;;;136.12;101.80;;;21.30;53.50;;;;;;4745641;59;21021;-42
2022/11/14 23:09:49;;;;;;;139.77;103.07;;;21.30;53.40;;;;;;4867513;55;21105;-32
2022/11/14 23:14:50;;;;;;;134.85;100.30;;;21.30;53.40;;;;;;4928378;55;21491;-37
2022/11/14 23:19:51;;;;;;;136.85;98.82;;;21.20;53.30;;;;;;5231182;55;21038;-51
2022/11/14 23:24:52;;;;;;;135.25;97.90;;;21.30;54.00;;;;;;4745439;59;21002;-44
2022/11/14 23:29:52;;;;;;;134.93;99.20;;;21.20;53.30;;;;;;4842494;55;21045;-38
2022/11/14 23:34:53;;;;;;;136.40;100.28;;;21.20;53.40;;;;;;4974338;55;21017;-38
2022/11/14 23:39:54;;;;;;;128.70;97.88;;;21.20;53.40;;;;;;4745337;57;21018;-40
2022/11/14 23:44:55;;;;;;;131.70;97.80;;;21.20;53.30;;;;;;4745634;59;21096;-49
2022/11/14 23:49:56;;;;;;;125.15;95.87;;;21.20;53.30;;;;;;4916491;55;21054;-43
2022/11/14 23:54:56;;;;;;;130.57;95.22;;;21.20;53.40;;;;;;4744952;59;21550;-44
2022/11/14 23:59:57;;;;;;;126.55;94.60;;;21.20;53.40;;;;;;4856170;55;21062;-37
